Time;durP1;ratioP1;P1;durP2;ratioP2;P2;SDS_P1;SDS_P2;PMS_P1;PMS_P2;Temp;Humidity;BMP_temperature;BMP_pressure;BME280_temperature;BME280_humidity;BME280_pressure;Samples;Min_cycle;Max_cycle;Signal;HPM_P1;HPM_P2
2021/11/13 00:00:19;;;;;;;35.92;7.57;;;13.00;99.90;;;;;;5073850;28;20028;-74
2021/11/13 00:02:45;;;;;;;27.30;6.60;;;13.00;99.90;;;;;;5073641;28;20494;-71
2021/11/13 00:05:11;;;;;;;27.63;6.97;;;13.00;99.90;;;;;;5073310;28;20086;-71
2021/11/13 00:07:38;;;;;;;25.75;6.93;;;13.00;99.90;;;;;;5073272;28;20024;-71
2021/11/13 00:10:05;;;;;;;28.73;6.40;;;13.00;99.90;;;;;;5073281;28;20028;-70
2021/11/13 00:12:31;;;;;;;33.17;7.63;;;13.00;99.90;;;;;;5073506;28;20447;-73
2021/11/13 00:14:58;;;;;;;32.13;7.63;;;13.00;99.90;;;;;;5073462;28;20029;-70
2021/11/13 00:17:24;;;;;;;29.55;7.85;;;13.00;99.90;;;;;;5073398;28;20025;-73
2021/11/13 00:19:49;;;;;;;26.58;7.85;;;13.00;99.90;;;;;;5072949;28;20028;-73
2021/11/13 00:22:15;;;;;;;26.02;6.95;;;13.00;99.90;;;;;;5073377;28;20449;-72
2021/11/13 00:24:41;;;;;;;28.33;7.15;;;13.00;99.90;;;;;;5073385;28;20025;-73
2021/11/13 00:27:07;;;;;;;31.17;8.20;;;13.00;99.90;;;;;;5073381;28;20382;-72
2021/11/13 00:29:33;;;;;;;29.20;6.05;;;13.00;99.90;;;;;;5073041;28;20066;-71
2021/11/13 00:31:58;;;;;;;24.85;7.57;;;12.90;99.90;;;;;;5073061;28;20028;-72
2021/11/13 00:34:24;;;;;;;27.08;7.05;;;12.90;99.90;;;;;;5055004;28;20040;-70
2021/11/13 00:36:50;;;;;;;31.52;7.82;;;12.90;99.90;;;;;;5055235;28;20021;-72
2021/11/13 00:39:16;;;;;;;33.20;7.28;;;12.90;99.90;;;;;;5072877;28;20567;-73
2021/11/13 00:41:42;;;;;;;33.63;8.18;;;12.90;99.90;;;;;;5072949;28;20020;-73
2021/11/13 00:44:07;;;;;;;29.27;6.85;;;12.90;99.90;;;;;;5072830;28;20043;-73
2021/11/13 00:46:33;;;;;;;33.08;6.43;;;12.80;99.90;;;;;;5072722;28;20040;-70
2021/11/13 00:48:59;;;;;;;32.75;7.68;;;12.80;99.90;;;;;;5073154;28;20441;-70
2021/11/13 00:51:25;;;;;;;20.67;6.03;;;12.80;99.90;;;;;;5073129;28;20028;-70
2021/11/13 00:53:50;;;;;;;26.25;7.85;;;12.80;99.90;;;;;;5072843;28;20082;-74
2021/11/13 00:56:16;;;;;;;30.10;6.72;;;12.80;99.90;;;;;;5054800;28;20032;-73
2021/11/13 00:58:42;;;;;;;29.58;7.57;;;12.70;99.90;;;;;;5072706;28;20032;-73
2021/11/13 01:01:08;;;;;;;31.45;7.63;;;12.70;99.90;;;;;;5072744;28;20096;-69
2021/11/13 01:03:34;;;;;;;36.70;8.18;;;12.70;99.90;;;;;;5073001;28;20025;-72
2021/11/13 01:06:00;;;;;;;26.70;6.55;;;12.80;99.90;;;;;;5072685;28;20052;-74
2021/11/13 01:08:27;;;;;;;26.15;7.00;;;12.70;99.90;;;;;;5072973;28;20036;-74
2021/11/13 01:10:52;;;;;;;23.25;6.05;;;12.70;99.90;;;;;;5072910;28;20033;-72
2021/11/13 01:13:19;;;;;;;34.10;6.95;;;12.70;99.90;;;;;;5072643;28;20040;-71
2021/11/13 01:15:45;;;;;;;39.42;8.07;;;12.70;99.90;;;;;;5072600;28;20440;-72
2021/11/13 01:18:11;;;;;;;20.98;5.65;;;12.60;99.90;;;;;;5072485;28;20032;-70
2021/11/13 01:20:37;;;;;;;29.08;7.50;;;12.60;99.90;;;;;;5072548;28;20021;-72
2021/11/13 01:23:04;;;;;;;33.70;7.40;;;12.60;99.90;;;;;;5072536;28;20105;-72
2021/11/13 01:25:30;;;;;;;25.85;6.55;;;12.60;99.90;;;;;;5072531;28;20024;-70
2021/11/13 01:27:56;;;;;;;24.52;5.93;;;12.60;99.90;;;;;;5072505;28;20043;-72
2021/11/13 01:30:22;;;;;;;31.48;6.40;;;12.60;99.90;;;;;;5073268;28;20048;-73
2021/11/13 01:32:48;;;;;;;29.27;6.00;;;12.60;99.90;;;;;;5076056;28;20493;-71
2021/11/13 01:35:16;;;;;;;34.25;7.43;;;12.60;99.90;;;;;;5076290;28;20022;-71
2021/11/13 01:37:41;;;;;;;31.35;7.35;;;12.60;99.90;;;;;;5076281;28;20028;-71
2021/11/13 01:40:11;;;;;;;25.52;7.38;;;12.60;99.90;;;;;;5075930;28;20028;-71
2021/11/13 01:42:37;;;;;;;29.55;6.65;;;12.60;99.90;;;;;;5075870;28;20032;-71
2021/11/13 01:45:05;;;;;;;37.35;6.57;;;12.50;99.90;;;;;;5075821;28;20016;-72
2021/11/13 01:47:31;;;;;;;22.80;5.68;;;12.60;99.90;;;;;;5075416;28;20106;-72
2021/11/13 01:49:57;;;;;;;28.63;7.85;;;12.50;99.90;;;;;;5075731;28;20059;-72
2021/11/13 01:52:23;;;;;;;25.35;6.20;;;12.50;99.90;;;;;;5075749;28;20435;-71
2021/11/13 01:54:49;;;;;;;23.80;6.15;;;12.50;99.90;;;;;;5075697;28;20398;-73
2021/11/13 01:57:22;;;;;;;24.92;6.20;;;12.50;99.90;;;;;;5075868;28;20517;-71
2021/11/13 01:59:51;;;;;;;27.02;6.97;;;12.60;99.90;;;;;;5076117;28;20108;-72
2021/11/13 02:02:17;;;;;;;21.63;5.22;;;12.50;99.90;;;;;;5075549;28;20047;-73
2021/11/13 02:04:43;;;;;;;26.85;6.70;;;12.50;99.90;;;;;;5075526;28;20021;-70
2021/11/13 02:07:09;;;;;;;22.45;5.70;;;12.50;99.90;;;;;;5075738;28;20016;-71
2021/11/13 02:09:35;;;;;;;21.30;5.95;;;12.50;99.90;;;;;;5075460;28;20031;-71
2021/11/13 02:12:00;;;;;;;26.52;5.97;;;12.40;99.90;;;;;;5057369;28;20062;-71
2021/11/13 02:14:27;;;;;;;22.45;5.55;;;12.40;99.90;;;;;;5075353;28;20037;-72
2021/11/13 02:16:53;;;;;;;21.70;5.35;;;12.30;99.90;;;;;;5075549;28;20111;-72
2021/11/13 02:19:19;;;;;;;23.77;6.35;;;12.30;99.90;;;;;;5075158;28;20154;-71
2021/11/13 02:21:45;;;;;;;25.10;5.25;;;12.30;99.90;;;;;;5075168;28;20025;-71
2021/11/13 02:24:11;;;;;;;26.98;6.93;;;12.30;99.90;;;;;;5075176;28;20025;-72
2021/11/13 02:26:37;;;;;;;23.15;6.10;;;12.30;99.90;;;;;;5075126;28;20036;-73
2021/11/13 02:29:04;;;;;;;27.92;5.78;;;12.20;99.90;;;;;;5075370;28;20478;-72
2021/11/13 02:31:37;;;;;;;25.75;6.53;;;12.20;99.90;;;;;;5075014;28;20024;-71
2021/11/13 02:34:05;;;;;;;20.05;5.70;;;12.30;99.90;;;;;;5074979;28;20059;-72
2021/11/13 02:36:30;;;;;;;26.77;6.55;;;12.20;99.90;;;;;;5074907;28;20448;-71
2021/11/13 02:38:58;;;;;;;23.77;5.47;;;12.20;99.90;;;;;;5074780;28;20024;-73
2021/11/13 02:41:26;;;;;;;18.27;4.85;;;12.20;99.90;;;;;;5074413;28;20024;-72
2021/11/13 02:43:53;;;;;;;23.83;5.18;;;12.10;99.90;;;;;;5074686;28;20017;-70
2021/11/13 02:46:19;;;;;;;29.05;6.05;;;12.10;99.90;;;;;;5074475;28;20094;-72
2021/11/13 02:48:44;;;;;;;15.57;4.07;;;12.10;99.90;;;;;;5074641;28;20433;-70
2021/11/13 02:51:11;;;;;;;14.48;4.72;;;12.00;99.90;;;;;;5056727;28;20025;-71
2021/11/13 02:53:38;;;;;;;14.40;4.35;;;12.00;99.90;;;;;;5074521;28;20051;-71
2021/11/13 02:56:07;;;;;;;16.48;4.38;;;12.00;99.90;;;;;;5074533;28;20053;-74
2021/11/13 02:58:34;;;;;;;21.65;4.45;;;12.00;99.90;;;;;;5074359;28;20017;-71
2021/11/13 03:01:09;;;;;;;18.52;4.13;;;12.00;99.90;;;;;;5074401;28;20021;-72
2021/11/13 03:03:35;;;;;;;20.25;3.75;;;12.00;99.90;;;;;;5074949;28;20025;-72
2021/11/13 03:06:01;;;;;;;15.88;3.70;;;12.10;99.90;;;;;;5074546;28;20013;-73
2021/11/13 03:08:33;;;;;;;16.88;3.88;;;12.10;99.90;;;;;;5074494;28;20482;-71
2021/11/13 03:11:06;;;;;;;13.63;3.38;;;12.10;99.90;;;;;;5074477;28;20482;-71
2021/11/13 03:13:33;;;;;;;19.17;3.72;;;12.20;99.90;;;;;;5074193;28;20028;-72
2021/11/13 03:16:01;;;;;;;14.82;3.58;;;12.10;99.90;;;;;;5074083;28;20024;-71
2021/11/13 03:18:27;;;;;;;17.60;3.70;;;12.10;99.90;;;;;;5073966;28;20557;-71
2021/11/13 03:20:53;;;;;;;21.13;2.95;;;12.10;99.90;;;;;;5074003;28;20028;-73
2021/11/13 03:23:20;;;;;;;12.40;3.17;;;12.10;99.90;;;;;;5074523;28;20066;-70
2021/11/13 03:25:53;;;;;;;14.13;3.25;;;12.10;99.90;;;;;;5073946;28;20017;-70
2021/11/13 03:28:23;;;;;;;10.40;2.88;;;12.10;99.90;;;;;;5074186;28;20063;-74
2021/11/13 03:30:49;;;;;;;17.52;3.30;;;12.20;99.90;;;;;;5073830;28;20107;-70
2021/11/13 03:33:14;;;;;;;15.02;3.15;;;12.20;99.90;;;;;;5055782;28;20057;-72
2021/11/13 03:35:40;;;;;;;10.68;2.38;;;12.20;99.90;;;;;;5074021;28;20385;-72
2021/11/13 03:38:15;;;;;;;12.73;2.65;;;12.30;99.90;;;;;;5055698;28;20487;-71
2021/11/13 03:40:44;;;;;;;17.20;2.88;;;12.30;99.90;;;;;;5073955;28;20020;-72
2021/11/13 03:43:12;;;;;;;11.18;2.53;;;12.30;99.90;;;;;;5073559;28;20012;-70
2021/11/13 03:45:39;;;;;;;11.82;2.58;;;12.30;99.90;;;;;;5073409;28;20029;-71
2021/11/13 03:48:05;;;;;;;12.40;2.28;;;12.20;99.90;;;;;;5073561;28;20158;-71
2021/11/13 03:50:31;;;;;;;13.25;2.55;;;12.20;99.90;;;;;;5073511;28;20074;-70
2021/11/13 03:52:57;;;;;;;8.82;2.42;;;12.20;99.90;;;;;;5072770;28;20028;-73
2021/11/13 03:55:24;;;;;;;10.05;2.00;;;12.20;99.90;;;;;;5055430;28;20398;-71
2021/11/13 03:57:50;;;;;;;10.02;2.13;;;12.20;99.90;;;;;;5073437;28;20040;-72
2021/11/13 04:00:17;;;;;;;12.32;2.92;;;12.20;99.90;;;;;;5073554;28;20025;-72
2021/11/13 04:02:46;;;;;;;12.30;2.80;;;12.20;99.90;;;;;;5073377;28;20024;-74
2021/11/13 04:05:12;;;;;;;12.90;2.15;;;12.20;99.90;;;;;;5073598;28;20103;-71
2021/11/13 04:07:38;;;;;;;10.98;2.42;;;12.20;99.90;;;;;;5073304;28;20078;-75
2021/11/13 04:10:09;;;;;;;8.52;1.85;;;12.20;99.90;;;;;;5073789;28;20100;-71
2021/11/13 04:12:35;;;;;;;;;;;12.20;99.90;;;;;;5073989;28;20036;-72
2021/11/13 04:15:01;;;;;;;8.13;2.00;;;12.20;99.90;;;;;;5073216;28;19905;-71
2021/11/13 04:17:27;;;;;;;7.97;2.40;;;12.10;99.90;;;;;;5073237;28;20023;-70
2021/11/13 04:19:53;;;;;;;9.95;2.67;;;12.10;99.90;;;;;;5073418;28;20111;-73
2021/11/13 04:22:19;;;;;;;9.02;2.28;;;12.20;99.90;;;;;;5073438;28;20059;-72
2021/11/13 04:24:45;;;;;;;12.07;2.00;;;12.10;99.90;;;;;;5073107;28;20029;-71
2021/11/13 04:27:10;;;;;;;8.73;2.20;;;12.10;99.90;;;;;;5073422;28;20025;-71
2021/11/13 04:29:36;;;;;;;9.20;1.88;;;12.10;99.90;;;;;;5073394;28;20493;-70
2021/11/13 04:32:03;;;;;;;6.40;2.35;;;12.20;99.90;;;;;;5073024;28;20024;-72
2021/11/13 04:34:39;;;;;;;10.18;1.80;;;12.10;99.90;;;;;;5073269;28;20031;-73
2021/11/13 04:37:13;;;;;;;6.65;1.80;;;12.20;99.90;;;;;;5073334;28;20029;-72
2021/11/13 04:39:39;;;;;;;10.20;2.75;;;12.20;99.90;;;;;;5073192;28;20538;-73
2021/11/13 04:42:05;;;;;;;9.55;3.08;;;12.20;99.90;;;;;;5072901;28;20103;-71
2021/11/13 04:44:31;;;;;;;16.45;2.35;;;12.20;99.90;;;;;;5072999;28;20492;-73
2021/11/13 04:46:56;;;;;;;11.40;2.35;;;12.20;99.90;;;;;;5072547;28;20044;-71
2021/11/13 04:49:22;;;;;;;11.02;2.55;;;12.30;99.90;;;;;;5072882;28;20029;-70
2021/11/13 04:51:48;;;;;;;11.60;3.17;;;12.30;99.90;;;;;;5072899;28;20035;-71
2021/11/13 04:54:13;;;;;;;11.50;2.80;;;12.20;99.90;;;;;;5073098;28;20028;-71
2021/11/13 04:56:39;;;;;;;11.95;2.60;;;12.30;99.90;;;;;;5073080;28;20028;-69
2021/11/13 04:59:05;;;;;;;7.85;2.17;;;12.30;99.90;;;;;;5073253;28;20039;-72
2021/11/13 05:01:31;;;;;;;7.03;2.03;;;12.20;99.90;;;;;;5072778;28;20167;-74
2021/11/13 05:03:56;;;;;;;6.05;1.75;;;12.30;99.90;;;;;;5072926;28;20021;-70
2021/11/13 05:06:23;;;;;;;9.27;2.03;;;12.30;99.90;;;;;;5076567;28;20020;-70
2021/11/13 05:08:48;;;;;;;10.07;2.25;;;12.20;99.90;;;;;;5076535;28;20055;-69
2021/11/13 05:11:14;;;;;;;9.43;1.90;;;12.20;99.90;;;;;;5076529;28;20063;-70
2021/11/13 05:13:40;;;;;;;8.07;2.15;;;12.20;99.90;;;;;;5058510;28;20494;-72
2021/11/13 05:16:06;;;;;;;11.50;2.53;;;12.20;99.90;;;;;;5076439;28;20024;-70
2021/11/13 05:18:32;;;;;;;5.40;2.22;;;12.20;99.90;;;;;;5076538;28;20111;-72
2021/11/13 05:20:57;;;;;;;11.27;2.05;;;12.20;99.90;;;;;;5076287;28;20025;-72
2021/11/13 05:23:23;;;;;;;11.75;2.10;;;12.10;99.90;;;;;;5076269;28;20031;-71
2021/11/13 05:25:49;;;;;;;7.68;2.10;;;12.20;99.90;;;;;;5076507;28;20024;-71
2021/11/13 05:28:14;;;;;;;10.02;2.20;;;12.20;99.90;;;;;;5076188;28;20056;-70
2021/11/13 05:30:40;;;;;;;9.57;2.67;;;12.30;99.90;;;;;;5076177;28;20025;-69
2021/11/13 05:33:06;;;;;;;10.15;1.77;;;12.30;99.90;;;;;;5076052;28;20020;-74
2021/11/13 05:35:31;;;;;;;7.25;1.73;;;12.30;99.90;;;;;;5076311;28;20027;-72
2021/11/13 05:37:57;;;;;;;10.27;1.80;;;12.30;99.90;;;;;;5076030;28;20029;-70
2021/11/13 05:40:23;;;;;;;4.43;1.70;;;12.20;99.90;;;;;;5076218;28;20390;-72
2021/11/13 05:42:49;;;;;;;8.23;2.70;;;12.20;99.90;;;;;;5076093;28;20024;-71
2021/11/13 05:45:15;;;;;;;7.90;1.60;;;12.20;99.90;;;;;;5075984;28;20131;-71
2021/11/13 05:47:42;;;;;;;4.85;1.98;;;12.20;99.90;;;;;;5076187;28;20028;-72
2021/11/13 05:50:12;;;;;;;5.85;1.92;;;12.20;99.90;;;;;;5075785;28;20099;-70
2021/11/13 05:52:40;;;;;;;5.30;2.00;;;12.30;99.90;;;;;;5076385;28;20028;-72
2021/11/13 05:55:06;;;;;;;6.30;2.17;;;12.20;99.90;;;;;;5075713;28;20029;-71
2021/11/13 05:57:32;;;;;;;7.75;1.75;;;12.20;99.90;;;;;;5075657;28;20034;-71
2021/11/13 05:59:58;;;;;;;6.00;1.80;;;12.20;99.90;;;;;;5075564;28;20021;-71
2021/11/13 06:02:23;;;;;;;5.28;2.00;;;12.30;99.90;;;;;;5075872;28;20390;-71
2021/11/13 06:04:50;;;;;;;6.80;1.80;;;12.20;99.90;;;;;;5075822;28;20440;-69
2021/11/13 06:07:15;;;;;;;7.95;2.35;;;12.30;99.90;;;;;;5075541;28;20024;-71
2021/11/13 06:09:41;;;;;;;9.60;1.80;;;12.30;99.90;;;;;;5075796;28;20024;-72
2021/11/13 06:12:07;;;;;;;7.43;2.05;;;12.30;99.90;;;;;;5075462;28;20029;-70
2021/11/13 06:14:33;;;;;;;8.40;1.98;;;12.20;99.90;;;;;;5075636;28;20024;-72
2021/11/13 06:16:59;;;;;;;7.25;2.38;;;12.30;99.90;;;;;;5074615;28;20434;-70
2021/11/13 06:19:24;;;;;;;7.68;2.28;;;12.20;99.90;;;;;;5075740;28;20030;-71
2021/11/13 06:21:50;;;;;;;6.28;2.50;;;12.20;99.90;;;;;;5075523;28;20052;-73
2021/11/13 06:24:16;;;;;;;9.52;3.15;;;12.20;99.90;;;;;;5075187;28;20389;-72
2021/11/13 06:26:42;;;;;;;6.03;1.95;;;12.20;99.90;;;;;;5075120;28;20028;-71
2021/11/13 06:29:08;;;;;;;8.75;2.00;;;12.20;99.90;;;;;;5075099;28;20025;-72
2021/11/13 06:31:34;;;;;;;6.88;2.17;;;12.20;99.90;;;;;;5075306;28;20035;-72
2021/11/13 06:33:59;;;;;;;7.57;1.90;;;12.30;99.90;;;;;;5074987;28;20474;-70
2021/11/13 06:36:25;;;;;;;12.27;2.30;;;12.30;99.90;;;;;;5075174;28;20033;-71
2021/11/13 06:38:51;;;;;;;7.63;2.92;;;12.30;99.90;;;;;;5074815;28;20030;-72
2021/11/13 06:41:16;;;;;;;6.50;2.83;;;12.30;99.90;;;;;;5074867;28;20389;-72
2021/11/13 06:43:42;;;;;;;8.52;2.00;;;12.30;99.90;;;;;;5074751;28;20021;-73
2021/11/13 06:46:08;;;;;;;9.07;2.50;;;12.20;99.90;;;;;;5074543;28;20044;-70
2021/11/13 06:48:33;;;;;;;7.32;2.20;;;12.20;99.90;;;;;;5074679;28;20485;-69
2021/11/13 06:50:59;;;;;;;6.25;2.50;;;12.20;99.90;;;;;;5074613;28;20024;-70
2021/11/13 06:53:25;;;;;;;7.13;1.88;;;12.20;99.90;;;;;;5074874;28;20030;-70
2021/11/13 06:55:50;;;;;;;8.32;2.90;;;12.20;99.90;;;;;;5074801;28;20118;-71
2021/11/13 06:58:17;;;;;;;6.68;3.42;;;12.20;99.90;;;;;;5074484;28;20101;-74
2021/11/13 07:00:43;;;;;;;9.40;2.05;;;12.30;99.90;;;;;;5075015;28;20565;-71
2021/11/13 07:03:09;;;;;;;9.80;4.20;;;12.30;99.90;;;;;;5074312;28;20099;-71
2021/11/13 07:05:35;;;;;;;6.90;2.08;;;12.30;99.90;;;;;;5074601;28;20154;-71
2021/11/13 07:08:01;;;;;;;13.18;4.05;;;12.30;99.90;;;;;;5074313;28;20031;-72
2021/11/13 07:10:28;;;;;;;8.07;2.15;;;12.30;99.90;;;;;;5074267;28;20023;-73
2021/11/13 07:12:54;;;;;;;6.18;2.20;;;12.30;99.90;;;;;;5074197;28;20103;-71
2021/11/13 07:15:20;;;;;;;7.95;2.30;;;12.30;99.90;;;;;;5074136;28;20028;-71
2021/11/13 07:17:46;;;;;;;4.60;1.95;;;12.20;99.90;;;;;;5074105;28;20036;-73
2021/11/13 07:20:14;;;;;;;8.63;2.45;;;12.20;99.90;;;;;;5073933;28;20498;-71
2021/11/13 07:22:41;;;;;;;6.07;2.40;;;12.20;99.90;;;;;;5074026;28;20031;-71
2021/11/13 07:25:13;;;;;;;6.00;2.78;;;12.20;99.90;;;;;;5073924;28;20021;-71
2021/11/13 07:27:40;;;;;;;6.25;2.03;;;12.30;99.90;;;;;;5073722;28;20074;-71
2021/11/13 07:30:07;;;;;;;11.40;3.20;;;12.30;99.90;;;;;;5073710;28;20543;-73
2021/11/13 07:32:33;;;;;;;7.22;3.60;;;12.30;99.90;;;;;;5074102;28;20035;-70
2021/11/13 07:34:59;;;;;;;5.13;2.53;;;12.30;99.90;;;;;;5074084;28;20028;-72
2021/11/13 07:37:25;;;;;;;7.45;2.90;;;12.30;99.90;;;;;;5073767;28;20063;-72
2021/11/13 07:39:54;;;;;;;5.30;2.83;;;12.30;99.90;;;;;;5055706;28;20078;-70
2021/11/13 07:42:20;;;;;;;6.78;3.55;;;12.30;99.90;;;;;;5073935;28;20024;-71
2021/11/13 07:44:47;;;;;;;10.90;6.50;;;12.30;99.90;;;;;;5073599;28;20028;-73
2021/11/13 07:47:13;;;;;;;8.05;4.53;;;12.30;99.90;;;;;;5073413;28;20049;-72
2021/11/13 07:49:38;;;;;;;6.65;3.83;;;12.30;99.90;;;;;;5073514;28;20063;-69
2021/11/13 07:52:05;;;;;;;9.55;6.38;;;12.40;99.90;;;;;;5073774;28;20086;-71
2021/11/13 07:54:31;;;;;;;13.40;5.07;;;12.40;99.90;;;;;;5073512;28;20017;-73
2021/11/13 07:56:56;;;;;;;6.28;4.15;;;12.40;99.90;;;;;;5073426;28;20098;-70
2021/11/13 07:59:22;;;;;;;10.60;4.50;;;12.40;99.90;;;;;;5073368;28;20098;-73
2021/11/13 08:01:48;;;;;;;6.55;3.85;;;12.40;99.90;;;;;;5073699;28;20025;-73
2021/11/13 08:04:13;;;;;;;7.35;3.78;;;12.40;99.90;;;;;;5073441;28;20024;-71
2021/11/13 08:06:39;;;;;;;7.97;4.65;;;12.40;99.90;;;;;;5073358;28;20021;-71
2021/11/13 08:09:05;;;;;;;7.88;3.03;;;12.40;99.90;;;;;;5073292;28;20024;-71
2021/11/13 08:11:30;;;;;;;5.95;2.90;;;12.50;99.90;;;;;;5073303;28;20504;-72
2021/11/13 08:13:57;;;;;;;8.82;3.60;;;12.40;99.90;;;;;;5073269;28;20532;-70
2021/11/13 08:16:23;;;;;;;6.70;3.20;;;12.40;99.90;;;;;;5073251;28;20027;-73
2021/11/13 08:18:49;;;;;;;9.82;3.55;;;12.50;99.90;;;;;;5073109;28;20382;-73
2021/11/13 08:21:15;;;;;;;9.50;4.45;;;12.40;99.90;;;;;;5073173;28;20028;-73
2021/11/13 08:23:41;;;;;;;7.55;3.72;;;12.50;99.90;;;;;;5073122;28;20013;-72
2021/11/13 08:26:07;;;;;;;7.80;3.00;;;12.50;99.90;;;;;;5073150;28;20028;-71
2021/11/13 08:28:32;;;;;;;6.55;3.35;;;12.50;99.90;;;;;;5073083;28;20021;-70
2021/11/13 08:30:58;;;;;;;4.35;2.40;;;12.50;99.90;;;;;;5073046;28;20493;-71
2021/11/13 08:33:26;;;;;;;11.00;3.63;;;12.40;99.90;;;;;;5073032;28;20450;-72
2021/11/13 08:35:52;;;;;;;3.85;2.22;;;12.50;99.90;;;;;;5073038;28;20081;-73
2021/11/13 08:38:20;;;;;;;6.70;3.05;;;12.60;99.90;;;;;;5072971;28;20024;-71
2021/11/13 08:40:47;;;;;;;9.05;4.80;;;12.50;99.90;;;;;;5058234;28;20020;-71
2021/11/13 08:43:14;;;;;;;6.38;3.00;;;12.50;99.90;;;;;;5077018;28;20482;-71
2021/11/13 08:45:41;;;;;;;5.07;2.28;;;12.60;99.90;;;;;;5076861;28;20564;-71
2021/11/13 08:48:06;;;;;;;6.47;3.25;;;12.60;99.90;;;;;;5077335;28;20074;-71
2021/11/13 08:50:32;;;;;;;6.90;3.40;;;12.50;99.90;;;;;;5076952;28;20024;-73
2021/11/13 08:53:01;;;;;;;7.47;3.53;;;12.50;99.90;;;;;;5076899;28;20021;-72
2021/11/13 08:55:29;;;;;;;5.05;2.30;;;12.50;99.90;;;;;;5076847;28;20070;-72
2021/11/13 08:57:56;;;;;;;5.05;2.65;;;12.50;99.90;;;;;;5076809;28;20028;-74
2021/11/13 09:00:25;;;;;;;7.05;4.05;;;12.60;99.90;;;;;;5076722;28;20025;-71
2021/11/13 09:02:53;;;;;;;9.40;5.32;;;12.70;99.90;;;;;;5077002;28;20378;-79
2021/11/13 09:05:19;;;;;;;6.05;4.03;;;12.80;99.90;;;;;;5076646;28;20071;-73
2021/11/13 09:07:45;;;;;;;6.15;3.63;;;12.80;99.90;;;;;;5076529;28;20032;-73
2021/11/13 09:10:11;;;;;;;3.58;2.58;;;12.90;99.90;;;;;;5076797;28;20039;-74
2021/11/13 09:12:37;;;;;;;7.05;3.03;;;13.00;99.90;;;;;;5076501;28;20428;-75
2021/11/13 09:15:10;;;;;;;6.20;3.85;;;13.20;99.90;;;;;;5076777;28;20048;-75
2021/11/13 09:17:36;;;;;;;11.73;6.97;;;13.30;99.90;;;;;;5076465;28;20119;-74
2021/11/13 09:20:02;;;;;;;9.00;5.00;;;13.40;99.90;;;;;;5076278;28;20442;-72
2021/11/13 09:22:28;;;;;;;6.63;3.47;;;13.50;99.90;;;;;;5076320;28;20013;-74
2021/11/13 09:24:54;;;;;;;7.68;4.20;;;13.50;99.90;;;;;;5076246;28;20027;-75
2021/11/13 09:27:20;;;;;;;5.57;3.22;;;13.60;99.90;;;;;;5076213;28;20052;-76
2021/11/13 09:29:46;;;;;;;5.88;2.92;;;13.70;99.90;;;;;;5076423;28;20032;-75
2021/11/13 09:32:11;;;;;;;6.47;3.22;;;13.80;99.90;;;;;;5076174;28;20036;-73
2021/11/13 09:34:37;;;;;;;4.05;2.97;;;13.90;99.90;;;;;;5076005;28;20029;-73
2021/11/13 09:37:03;;;;;;;3.65;2.35;;;14.20;99.90;;;;;;5075591;28;20322;-73
2021/11/13 09:39:29;;;;;;;4.78;2.47;;;14.40;99.90;;;;;;5076006;28;20020;-76
2021/11/13 09:41:57;;;;;;;6.22;2.53;;;14.40;99.90;;;;;;5076337;28;20508;-74
2021/11/13 09:44:23;;;;;;;4.95;3.13;;;14.50;99.90;;;;;;5076083;28;20020;-73
2021/11/13 09:46:51;;;;;;;4.93;3.28;;;14.40;99.90;;;;;;5075701;28;20056;-74
2021/11/13 09:49:17;;;;;;;4.85;2.40;;;14.20;99.90;;;;;;5057860;28;20032;-80
2021/11/13 09:51:44;;;;;;;4.15;2.35;;;14.00;99.90;;;;;;5056569;28;20513;-81
2021/11/13 09:54:10;;;;;;;3.78;1.90;;;14.00;99.90;;;;;;5058728;28;20112;-76
2021/11/13 09:56:36;;;;;;;4.65;2.25;;;14.10;99.90;;;;;;5075973;28;20155;-78
2021/11/13 09:59:03;;;;;;;2.95;1.90;;;14.00;99.90;;;;;;5076322;28;20111;-74
2021/11/13 10:01:29;;;;;;;2.50;1.95;;;14.10;99.90;;;;;;5075467;28;20022;-73
2021/11/13 10:03:54;;;;;;;3.08;1.88;;;14.40;99.90;;;;;;5075544;28;20393;-73
2021/11/13 10:06:20;;;;;;;3.40;1.42;;;14.60;99.90;;;;;;5076335;28;20020;-74
2021/11/13 10:08:49;;;;;;;1.88;1.38;;;14.70;99.90;;;;;;5075411;28;20029;-74
2021/11/13 10:11:21;;;;;;;3.30;1.70;;;14.70;99.90;;;;;;5075879;28;20486;-72
2021/11/13 10:13:55;;;;;;;2.63;1.50;;;14.70;99.90;;;;;;5075375;28;20032;-77
2021/11/13 10:16:33;;;;;;;3.08;1.55;;;14.70;99.90;;;;;;5057338;28;20028;-75
2021/11/13 10:19:15;;;;;;;4.38;1.98;;;14.70;99.90;;;;;;5075193;28;20024;-74
2021/11/13 10:21:44;;;;;;;4.82;1.88;;;14.90;99.90;;;;;;5075527;28;20035;-74
2021/11/13 10:24:13;;;;;;;2.97;2.03;;;14.90;99.90;;;;;;5075149;28;20016;-80
2021/11/13 10:26:45;;;;;;;4.20;2.03;;;14.90;99.90;;;;;;5075063;28;20016;-75
2021/11/13 10:29:17;;;;;;;3.75;2.17;;;14.80;99.90;;;;;;5075055;28;20039;-75
2021/11/13 10:31:46;;;;;;;4.00;1.85;;;14.90;99.90;;;;;;5075263;28;20108;-72
2021/11/13 10:34:14;;;;;;;2.92;1.65;;;15.00;99.90;;;;;;5075227;28;20028;-74
2021/11/13 10:36:45;;;;;;;2.00;1.38;;;14.80;99.90;;;;;;5056945;28;20394;-76
2021/11/13 10:39:21;;;;;;;3.58;1.02;;;14.80;99.90;;;;;;5075100;28;20482;-72
2021/11/13 10:41:54;;;;;;;4.97;1.70;;;14.80;99.90;;;;;;5075562;28;20017;-74
2021/11/13 10:44:38;;;;;;;3.55;1.30;;;14.70;99.90;;;;;;5075379;28;20103;-75
2021/11/13 10:47:18;;;;;;;1.10;1.00;;;14.70;99.90;;;;;;5074508;28;20093;-73
2021/11/13 10:49:46;;;;;;;2.03;1.10;;;14.60;99.90;;;;;;5075394;28;20107;-73
2021/11/13 10:52:12;;;;;;;2.05;1.30;;;14.60;99.90;;;;;;5074652;28;20103;-73
2021/11/13 10:54:43;;;;;;;3.35;1.40;;;14.70;99.90;;;;;;5075068;28;20025;-72
2021/11/13 10:57:09;;;;;;;3.47;1.65;;;14.80;99.90;;;;;;5074496;28;20048;-75
2021/11/13 10:59:41;;;;;;;6.93;1.60;;;14.80;99.90;;;;;;5074338;28;20112;-72
2021/11/13 11:02:16;;;;;;;3.35;1.00;;;14.90;99.90;;;;;;5074040;28;20016;-73
2021/11/13 11:04:44;;;;;;;3.80;1.50;;;15.00;99.90;;;;;;5074866;28;20028;-72
2021/11/13 11:07:20;;;;;;;3.15;1.00;;;15.10;99.90;;;;;;5074248;28;20023;-72
2021/11/13 11:10:10;;;;;;;3.53;0.88;;;15.10;99.90;;;;;;5055982;28;20032;-74
2021/11/13 11:12:38;;;;;;;1.98;0.80;;;15.00;99.90;;;;;;5074495;28;20103;-74
2021/11/13 11:15:09;;;;;;;3.88;1.52;;;15.00;99.90;;;;;;5074334;28;20033;-73
2021/11/13 11:17:35;;;;;;;1.85;0.95;;;15.10;99.90;;;;;;5073980;28;20486;-73
2021/11/13 11:20:12;;;;;;;3.42;1.00;;;15.20;99.90;;;;;;5074163;28;20036;-71
2021/11/13 11:22:39;;;;;;;1.65;0.80;;;15.20;99.90;;;;;;5074459;28;20474;-72
2021/11/13 11:25:07;;;;;;;3.30;1.08;;;15.10;99.90;;;;;;5073908;28;20395;-73
2021/11/13 11:27:37;;;;;;;4.15;1.33;;;14.90;99.90;;;;;;5074159;28;20020;-73
2021/11/13 11:30:06;;;;;;;3.23;0.90;;;14.80;99.90;;;;;;5074427;28;20040;-73
2021/11/13 11:32:35;;;;;;;1.50;0.80;;;14.70;99.90;;;;;;5074307;28;20024;-75
2021/11/13 11:35:04;;;;;;;3.90;1.17;;;14.70;99.90;;;;;;5074103;28;20028;-71
2021/11/13 11:37:42;;;;;;;2.25;0.90;;;14.60;99.90;;;;;;5074363;28;20379;-73
2021/11/13 11:40:11;;;;;;;4.65;1.10;;;14.60;99.90;;;;;;5073557;28;20024;-73
2021/11/13 11:42:39;;;;;;;3.30;1.23;;;14.70;99.90;;;;;;5074180;28;20090;-74
2021/11/13 11:45:08;;;;;;;4.32;1.30;;;14.90;99.90;;;;;;5072667;28;20481;-73
2021/11/13 11:47:34;;;;;;;10.95;1.70;;;15.00;99.90;;;;;;5072284;28;20040;-71
2021/11/13 11:50:06;;;;;;;6.38;1.60;;;15.00;99.90;;;;;;5071740;28;20094;-74
2021/11/13 11:52:32;;;;;;;2.47;1.10;;;14.90;99.90;;;;;;5072733;28;20032;-72
2021/11/13 11:54:59;;;;;;;3.33;1.17;;;14.90;99.90;;;;;;5073402;28;20020;-71
2021/11/13 11:57:28;;;;;;;4.25;1.02;;;14.90;99.90;;;;;;5073444;28;20021;-70
2021/11/13 11:59:59;;;;;;;2.88;0.77;;;15.00;99.90;;;;;;5073312;28;20036;-73
2021/11/13 12:02:35;;;;;;;1.38;0.75;;;15.00;99.90;;;;;;5073692;28;20027;-72
2021/11/13 12:05:07;;;;;;;6.00;0.93;;;14.90;99.90;;;;;;5053686;28;20024;-72
2021/11/13 12:07:33;;;;;;;1.35;0.80;;;15.00;99.90;;;;;;5071367;28;20103;-74
2021/11/13 12:10:01;;;;;;;3.45;1.17;;;15.00;99.90;;;;;;5071311;28;20112;-72
2021/11/13 12:12:27;;;;;;;3.50;1.02;;;15.00;99.90;;;;;;5071295;28;20455;-73
2021/11/13 12:14:55;;;;;;;3.95;1.00;;;15.00;99.90;;;;;;5070840;28;20028;-72
2021/11/13 12:17:35;;;;;;;2.70;1.02;;;14.80;99.90;;;;;;5071653;28;20021;-72
2021/11/13 12:20:15;;;;;;;;;;;14.80;99.90;;;;;;5072882;28;20028;-72
2021/11/13 12:22:47;;;;;;;2.55;1.00;;;14.80;99.90;;;;;;5073789;28;19904;-71
2021/11/13 12:25:33;;;;;;;3.20;1.20;;;14.70;99.90;;;;;;5055177;28;20020;-73
2021/11/13 12:28:13;;;;;;;5.40;1.05;;;14.50;99.90;;;;;;5073405;28;20094;-70
2021/11/13 12:30:53;;;;;;;5.47;1.80;;;14.50;99.90;;;;;;5073116;28;20017;-72
2021/11/13 12:33:25;;;;;;;3.80;1.00;;;14.50;99.90;;;;;;5073641;28;20029;-73
2021/11/13 12:35:55;;;;;;;3.72;1.25;;;14.60;99.90;;;;;;5073316;28;20075;-69
2021/11/13 12:38:49;;;;;;;4.82;1.00;;;14.70;99.90;;;;;;5073348;28;20027;-71
2021/11/13 12:41:25;;;;;;;4.15;1.45;;;14.70;99.90;;;;;;5073612;28;20032;-69
2021/11/13 12:43:58;;;;;;;4.20;1.00;;;14.90;99.90;;;;;;5073259;28;20017;-74